New Laguna, New Mexico
Current Conditions -  °F | °C
As of 10:57 PM on Sunday 19 Oct 2014 (Local Time) from KGNT Reporting Station
Clear Clear  
Wind Chill: 35°   Ceiling: Unl
Heat Index: 39°   Visibility: 10mi
Dew Point: 36°   Wind: 6mph
Humidity: 87%   Direction: 310°NW
Pressure: 30.23"   Gusts: NA
Location:  35.04°N, 107.42°W
Report Text: KGNT 200457Z AUTO 31005KT 10SM CLR 04/02 A3023 RMK AO2
Loading
Personal Weather Stations






























Interactive Weather Map
Tropical Storm Tracking
New forecast layout! Learn more

10-Day Weather Forecast

Advertisements
Track Severe Weather on mobile